sensor_id;sensor_type;location;lat;lon;timestamp;P1;durP1;ratioP1;P2;durP2;ratioP2
5871;SDS011;2962;51.312;7.378;2024-03-25T00:00:32;13.00;;;4.57;;
5871;SDS011;2962;51.312;7.378;2024-03-25T00:02:59;22.65;;;7.30;;
5871;SDS011;2962;51.312;7.378;2024-03-25T00:05:24;9.73;;;3.90;;
5871;SDS011;2962;51.312;7.378;2024-03-25T00:07:50;15.57;;;6.88;;
5871;SDS011;2962;51.312;7.378;2024-03-25T00:10:16;15.30;;;7.03;;
5871;SDS011;2962;51.312;7.378;2024-03-25T00:12:42;17.73;;;5.70;;
5871;SDS011;2962;51.312;7.378;2024-03-25T00:15:08;22.07;;;4.17;;
5871;SDS011;2962;51.312;7.378;2024-03-25T00:17:34;17.97;;;6.00;;
5871;SDS011;2962;51.312;7.378;2024-03-25T00:19:59;12.30;;;5.80;;
5871;SDS011;2962;51.312;7.378;2024-03-25T00:22:25;14.40;;;5.10;;
5871;SDS011;2962;51.312;7.378;2024-03-25T00:24:50;9.93;;;6.60;;
5871;SDS011;2962;51.312;7.378;2024-03-25T00:27:17;24.20;;;7.90;;
5871;SDS011;2962;51.312;7.378;2024-03-25T00:29:43;17.10;;;6.93;;
5871;SDS011;2962;51.312;7.378;2024-03-25T00:32:09;19.43;;;7.07;;
5871;SDS011;2962;51.312;7.378;2024-03-25T00:34:35;20.70;;;8.32;;
5871;SDS011;2962;51.312;7.378;2024-03-25T00:37:01;9.53;;;5.70;;
5871;SDS011;2962;51.312;7.378;2024-03-25T00:39:27;21.33;;;7.67;;
5871;SDS011;2962;51.312;7.378;2024-03-25T00:41:53;20.00;;;7.65;;
5871;SDS011;2962;51.312;7.378;2024-03-25T00:44:18;17.23;;;6.10;;
5871;SDS011;2962;51.312;7.378;2024-03-25T00:46:44;7.23;;;3.70;;
5871;SDS011;2962;51.312;7.378;2024-03-25T00:49:09;18.60;;;5.70;;
5871;SDS011;2962;51.312;7.378;2024-03-25T00:51:35;26.47;;;8.17;;
5871;SDS011;2962;51.312;7.378;2024-03-25T00:54:01;26.20;;;7.22;;
5871;SDS011;2962;51.312;7.378;2024-03-25T00:56:28;33.17;;;9.25;;
5871;SDS011;2962;51.312;7.378;2024-03-25T00:58:53;41.33;;;10.53;;
5871;SDS011;2962;51.312;7.378;2024-03-25T01:01:19;22.77;;;9.10;;
5871;SDS011;2962;51.312;7.378;2024-03-25T01:03:44;25.80;;;8.97;;
5871;SDS011;2962;51.312;7.378;2024-03-25T01:06:10;26.67;;;9.13;;
5871;SDS011;2962;51.312;7.378;2024-03-25T01:08:35;29.23;;;10.00;;
5871;SDS011;2962;51.312;7.378;2024-03-25T01:11:00;30.43;;;9.33;;
5871;SDS011;2962;51.312;7.378;2024-03-25T01:13:26;41.57;;;12.10;;
5871;SDS011;2962;51.312;7.378;2024-03-25T01:15:51;28.40;;;11.67;;
5871;SDS011;2962;51.312;7.378;2024-03-25T01:18:17;27.80;;;12.60;;
5871;SDS011;2962;51.312;7.378;2024-03-25T01:20:42;28.20;;;10.43;;
5871;SDS011;2962;51.312;7.378;2024-03-25T01:23:07;30.87;;;12.53;;
5871;SDS011;2962;51.312;7.378;2024-03-25T01:25:33;27.27;;;9.07;;
5871;SDS011;2962;51.312;7.378;2024-03-25T01:27:58;16.33;;;6.70;;
5871;SDS011;2962;51.312;7.378;2024-03-25T01:30:24;19.13;;;7.70;;
5871;SDS011;2962;51.312;7.378;2024-03-25T01:32:49;27.37;;;8.10;;
5871;SDS011;2962;51.312;7.378;2024-03-25T01:35:15;30.30;;;10.80;;
5871;SDS011;2962;51.312;7.378;2024-03-25T01:37:40;25.03;;;9.97;;
5871;SDS011;2962;51.312;7.378;2024-03-25T01:40:08;29.25;;;7.72;;
5871;SDS011;2962;51.312;7.378;2024-03-25T01:42:35;28.95;;;8.45;;
5871;SDS011;2962;51.312;7.378;2024-03-25T01:45:01;24.83;;;7.30;;
5871;SDS011;2962;51.312;7.378;2024-03-25T01:47:28;15.30;;;6.53;;
5871;SDS011;2962;51.312;7.378;2024-03-25T01:49:54;35.22;;;6.78;;
5871;SDS011;2962;51.312;7.378;2024-03-25T01:52:21;14.32;;;5.40;;
5871;SDS011;2962;51.312;7.378;2024-03-25T01:54:48;27.23;;;6.47;;
5871;SDS011;2962;51.312;7.378;2024-03-25T01:57:14;16.85;;;5.55;;
5871;SDS011;2962;51.312;7.378;2024-03-25T01:59:40;29.08;;;7.50;;
5871;SDS011;2962;51.312;7.378;2024-03-25T02:02:06;14.93;;;5.63;;
5871;SDS011;2962;51.312;7.378;2024-03-25T02:04:32;16.93;;;7.63;;
5871;SDS011;2962;51.312;7.378;2024-03-25T02:06:57;16.03;;;7.03;;
5871;SDS011;2962;51.312;7.378;2024-03-25T02:09:24;27.15;;;8.90;;
5871;SDS011;2962;51.312;7.378;2024-03-25T02:11:51;37.90;;;6.65;;
5871;SDS011;2962;51.312;7.378;2024-03-25T02:14:18;20.83;;;6.70;;
5871;SDS011;2962;51.312;7.378;2024-03-25T02:16:44;33.50;;;9.10;;
5871;SDS011;2962;51.312;7.378;2024-03-25T02:19:09;13.53;;;5.20;;
5871;SDS011;2962;51.312;7.378;2024-03-25T02:21:39;32.45;;;7.20;;
5871;SDS011;2962;51.312;7.378;2024-03-25T02:24:04;19.37;;;5.57;;
5871;SDS011;2962;51.312;7.378;2024-03-25T02:26:34;25.40;;;5.97;;
5871;SDS011;2962;51.312;7.378;2024-03-25T02:28:59;23.33;;;7.67;;
5871;SDS011;2962;51.312;7.378;2024-03-25T02:31:25;19.90;;;7.43;;
5871;SDS011;2962;51.312;7.378;2024-03-25T02:33:50;20.70;;;7.13;;
5871;SDS011;2962;51.312;7.378;2024-03-25T02:36:15;17.13;;;7.03;;
5871;SDS011;2962;51.312;7.378;2024-03-25T02:38:40;23.00;;;7.30;;
5871;SDS011;2962;51.312;7.378;2024-03-25T02:41:06;19.10;;;8.50;;
5871;SDS011;2962;51.312;7.378;2024-03-25T02:43:31;26.30;;;8.40;;
5871;SDS011;2962;51.312;7.378;2024-03-25T02:45:57;21.23;;;8.00;;
5871;SDS011;2962;51.312;7.378;2024-03-25T02:48:22;30.23;;;7.23;;
5871;SDS011;2962;51.312;7.378;2024-03-25T02:50:47;21.70;;;7.87;;
5871;SDS011;2962;51.312;7.378;2024-03-25T02:53:13;25.53;;;7.60;;
5871;SDS011;2962;51.312;7.378;2024-03-25T02:55:38;30.40;;;7.20;;
5871;SDS011;2962;51.312;7.378;2024-03-25T02:58:03;19.87;;;6.90;;
5871;SDS011;2962;51.312;7.378;2024-03-25T03:00:28;11.23;;;4.40;;
5871;SDS011;2962;51.312;7.378;2024-03-25T03:02:54;16.40;;;6.47;;
5871;SDS011;2962;51.312;7.378;2024-03-25T03:05:19;25.83;;;7.67;;
5871;SDS011;2962;51.312;7.378;2024-03-25T03:07:44;30.77;;;10.90;;
5871;SDS011;2962;51.312;7.378;2024-03-25T03:10:10;12.40;;;5.80;;
5871;SDS011;2962;51.312;7.378;2024-03-25T03:12:35;14.73;;;7.13;;
5871;SDS011;2962;51.312;7.378;2024-03-25T03:15:00;25.00;;;8.50;;
5871;SDS011;2962;51.312;7.378;2024-03-25T03:17:25;32.73;;;8.77;;
5871;SDS011;2962;51.312;7.378;2024-03-25T03:19:51;34.40;;;8.67;;
5871;SDS011;2962;51.312;7.378;2024-03-25T03:22:16;30.00;;;9.60;;
5871;SDS011;2962;51.312;7.378;2024-03-25T03:24:41;44.57;;;10.60;;
5871;SDS011;2962;51.312;7.378;2024-03-25T03:27:07;31.77;;;9.90;;
5871;SDS011;2962;51.312;7.378;2024-03-25T03:29:32;37.20;;;11.50;;
5871;SDS011;2962;51.312;7.378;2024-03-25T03:31:58;26.03;;;10.60;;
5871;SDS011;2962;51.312;7.378;2024-03-25T03:34:23;29.60;;;10.80;;
5871;SDS011;2962;51.312;7.378;2024-03-25T03:36:48;23.23;;;7.63;;
5871;SDS011;2962;51.312;7.378;2024-03-25T03:39:14;35.00;;;9.53;;
5871;SDS011;2962;51.312;7.378;2024-03-25T03:41:40;27.67;;;10.82;;
5871;SDS011;2962;51.312;7.378;2024-03-25T03:44:05;31.03;;;10.77;;
5871;SDS011;2962;51.312;7.378;2024-03-25T03:46:31;21.77;;;8.63;;
5871;SDS011;2962;51.312;7.378;2024-03-25T03:48:56;50.40;;;9.40;;
5871;SDS011;2962;51.312;7.378;2024-03-25T03:51:21;33.17;;;9.07;;
5871;SDS011;2962;51.312;7.378;2024-03-25T03:53:46;27.03;;;10.03;;
5871;SDS011;2962;51.312;7.378;2024-03-25T03:56:12;30.00;;;10.57;;
5871;SDS011;2962;51.312;7.378;2024-03-25T03:58:37;34.63;;;8.57;;
5871;SDS011;2962;51.312;7.378;2024-03-25T04:01:02;28.23;;;10.13;;
5871;SDS011;2962;51.312;7.378;2024-03-25T04:03:29;26.17;;;11.65;;
5871;SDS011;2962;51.312;7.378;2024-03-25T04:05:54;20.40;;;11.13;;
5871;SDS011;2962;51.312;7.378;2024-03-25T04:08:20;21.48;;;8.48;;
5871;SDS011;2962;51.312;7.378;2024-03-25T04:10:46;31.27;;;11.27;;
5871;SDS011;2962;51.312;7.378;2024-03-25T04:13:11;27.90;;;10.40;;
5871;SDS011;2962;51.312;7.378;2024-03-25T04:15:38;35.42;;;12.50;;
5871;SDS011;2962;51.312;7.378;2024-03-25T04:18:07;28.05;;;8.23;;
5871;SDS011;2962;51.312;7.378;2024-03-25T04:20:36;37.17;;;12.10;;
5871;SDS011;2962;51.312;7.378;2024-03-25T04:23:03;32.20;;;12.73;;
5871;SDS011;2962;51.312;7.378;2024-03-25T04:25:29;22.57;;;10.20;;
5871;SDS011;2962;51.312;7.378;2024-03-25T04:27:54;29.90;;;12.10;;
5871;SDS011;2962;51.312;7.378;2024-03-25T04:30:19;34.60;;;11.90;;
5871;SDS011;2962;51.312;7.378;2024-03-25T04:32:44;30.37;;;12.20;;
5871;SDS011;2962;51.312;7.378;2024-03-25T04:35:10;39.93;;;12.87;;
5871;SDS011;2962;51.312;7.378;2024-03-25T04:37:35;31.43;;;12.60;;
5871;SDS011;2962;51.312;7.378;2024-03-25T04:40:01;41.63;;;10.40;;
5871;SDS011;2962;51.312;7.378;2024-03-25T04:42:27;31.55;;;12.20;;
5871;SDS011;2962;51.312;7.378;2024-03-25T04:44:53;37.53;;;13.23;;
5871;SDS011;2962;51.312;7.378;2024-03-25T04:47:19;43.13;;;14.40;;
5871;SDS011;2962;51.312;7.378;2024-03-25T04:49:44;46.13;;;13.80;;
5871;SDS011;2962;51.312;7.378;2024-03-25T04:52:11;45.37;;;14.00;;
5871;SDS011;2962;51.312;7.378;2024-03-25T04:54:41;50.45;;;12.45;;
5871;SDS011;2962;51.312;7.378;2024-03-25T04:57:07;36.67;;;14.53;;
5871;SDS011;2962;51.312;7.378;2024-03-25T04:59:32;46.77;;;14.40;;
5871;SDS011;2962;51.312;7.378;2024-03-25T05:01:58;39.27;;;13.90;;
5871;SDS011;2962;51.312;7.378;2024-03-25T05:04:24;45.27;;;14.23;;
5871;SDS011;2962;51.312;7.378;2024-03-25T05:06:49;48.70;;;14.87;;
5871;SDS011;2962;51.312;7.378;2024-03-25T05:09:15;31.83;;;12.60;;
5871;SDS011;2962;51.312;7.378;2024-03-25T05:11:41;42.50;;;12.70;;
5871;SDS011;2962;51.312;7.378;2024-03-25T05:14:06;33.43;;;12.40;;
5871;SDS011;2962;51.312;7.378;2024-03-25T05:16:32;32.87;;;11.77;;
5871;SDS011;2962;51.312;7.378;2024-03-25T05:18:57;28.33;;;11.97;;
5871;SDS011;2962;51.312;7.378;2024-03-25T05:21:23;48.87;;;12.83;;
5871;SDS011;2962;51.312;7.378;2024-03-25T05:23:48;32.87;;;11.30;;
5871;SDS011;2962;51.312;7.378;2024-03-25T05:26:13;29.87;;;10.20;;
5871;SDS011;2962;51.312;7.378;2024-03-25T05:28:39;20.10;;;10.70;;
5871;SDS011;2962;51.312;7.378;2024-03-25T05:31:07;34.80;;;10.33;;
5871;SDS011;2962;51.312;7.378;2024-03-25T05:33:35;36.08;;;12.02;;
5871;SDS011;2962;51.312;7.378;2024-03-25T05:36:01;24.30;;;10.07;;
5871;SDS011;2962;51.312;7.378;2024-03-25T05:38:27;28.50;;;9.43;;
5871;SDS011;2962;51.312;7.378;2024-03-25T05:40:54;38.85;;;10.65;;
5871;SDS011;2962;51.312;7.378;2024-03-25T05:43:20;28.33;;;10.23;;
5871;SDS011;2962;51.312;7.378;2024-03-25T05:45:54;49.23;;;11.70;;
5871;SDS011;2962;51.312;7.378;2024-03-25T05:48:20;36.15;;;10.13;;
5871;SDS011;2962;51.312;7.378;2024-03-25T05:51:08;23.23;;;8.70;;
5871;SDS011;2962;51.312;7.378;2024-03-25T05:53:34;30.38;;;9.63;;
5871;SDS011;2962;51.312;7.378;2024-03-25T05:56:00;32.00;;;10.07;;
5871;SDS011;2962;51.312;7.378;2024-03-25T05:58:26;30.83;;;9.87;;
5871;SDS011;2962;51.312;7.378;2024-03-25T06:00:52;22.80;;;9.37;;
5871;SDS011;2962;51.312;7.378;2024-03-25T06:03:18;23.65;;;9.75;;
5871;SDS011;2962;51.312;7.378;2024-03-25T06:05:43;33.47;;;9.00;;
5871;SDS011;2962;51.312;7.378;2024-03-25T06:08:09;34.87;;;9.87;;
5871;SDS011;2962;51.312;7.378;2024-03-25T06:10:43;26.60;;;9.27;;
5871;SDS011;2962;51.312;7.378;2024-03-25T06:13:08;27.10;;;9.37;;
5871;SDS011;2962;51.312;7.378;2024-03-25T06:15:33;28.03;;;9.13;;
5871;SDS011;2962;51.312;7.378;2024-03-25T06:17:59;18.20;;;7.00;;
5871;SDS011;2962;51.312;7.378;2024-03-25T06:20:24;53.77;;;11.33;;
5871;SDS011;2962;51.312;7.378;2024-03-25T06:22:49;29.97;;;9.93;;
5871;SDS011;2962;51.312;7.378;2024-03-25T06:25:15;34.20;;;11.70;;
5871;SDS011;2962;51.312;7.378;2024-03-25T06:27:41;29.43;;;9.13;;
5871;SDS011;2962;51.312;7.378;2024-03-25T06:30:07;29.63;;;9.13;;
5871;SDS011;2962;51.312;7.378;2024-03-25T06:32:51;24.47;;;8.53;;
5871;SDS011;2962;51.312;7.378;2024-03-25T06:35:35;37.70;;;10.60;;
5871;SDS011;2962;51.312;7.378;2024-03-25T06:38:01;23.60;;;8.00;;
5871;SDS011;2962;51.312;7.378;2024-03-25T06:40:26;34.47;;;9.80;;
5871;SDS011;2962;51.312;7.378;2024-03-25T06:42:51;33.00;;;10.00;;
5871;SDS011;2962;51.312;7.378;2024-03-25T06:45:16;26.97;;;8.20;;
5871;SDS011;2962;51.312;7.378;2024-03-25T06:47:42;41.53;;;10.40;;
5871;SDS011;2962;51.312;7.378;2024-03-25T06:50:08;32.27;;;9.87;;
5871;SDS011;2962;51.312;7.378;2024-03-25T06:52:33;24.90;;;9.50;;
5871;SDS011;2962;51.312;7.378;2024-03-25T06:54:58;32.60;;;8.50;;
5871;SDS011;2962;51.312;7.378;2024-03-25T06:57:24;30.27;;;8.00;;
5871;SDS011;2962;51.312;7.378;2024-03-25T06:59:49;32.00;;;8.87;;
5871;SDS011;2962;51.312;7.378;2024-03-25T07:02:14;35.83;;;10.23;;
5871;SDS011;2962;51.312;7.378;2024-03-25T07:04:39;28.70;;;9.00;;
5871;SDS011;2962;51.312;7.378;2024-03-25T07:07:05;33.70;;;7.70;;
5871;SDS011;2962;51.312;7.378;2024-03-25T07:09:30;32.67;;;8.47;;
5871;SDS011;2962;51.312;7.378;2024-03-25T07:11:55;35.73;;;7.37;;
5871;SDS011;2962;51.312;7.378;2024-03-25T07:14:20;30.57;;;7.83;;
5871;SDS011;2962;51.312;7.378;2024-03-25T07:16:46;26.27;;;7.90;;
5871;SDS011;2962;51.312;7.378;2024-03-25T07:19:11;51.33;;;8.40;;
5871;SDS011;2962;51.312;7.378;2024-03-25T07:21:36;23.27;;;6.87;;
5871;SDS011;2962;51.312;7.378;2024-03-25T07:24:02;24.67;;;7.30;;
5871;SDS011;2962;51.312;7.378;2024-03-25T07:26:27;19.87;;;6.63;;
5871;SDS011;2962;51.312;7.378;2024-03-25T07:28:52;24.90;;;7.17;;
5871;SDS011;2962;51.312;7.378;2024-03-25T07:31:18;25.33;;;5.67;;
5871;SDS011;2962;51.312;7.378;2024-03-25T07:33:43;27.87;;;5.97;;
5871;SDS011;2962;51.312;7.378;2024-03-25T07:36:08;23.30;;;6.30;;
5871;SDS011;2962;51.312;7.378;2024-03-25T07:38:34;22.80;;;5.13;;
5871;SDS011;2962;51.312;7.378;2024-03-25T07:41:05;19.70;;;5.50;;
5871;SDS011;2962;51.312;7.378;2024-03-25T07:43:30;10.13;;;5.30;;
5871;SDS011;2962;51.312;7.378;2024-03-25T07:45:56;15.97;;;5.20;;
5871;SDS011;2962;51.312;7.378;2024-03-25T07:48:21;16.67;;;4.83;;
5871;SDS011;2962;51.312;7.378;2024-03-25T07:50:46;23.07;;;5.40;;
5871;SDS011;2962;51.312;7.378;2024-03-25T07:53:11;17.93;;;5.83;;
5871;SDS011;2962;51.312;7.378;2024-03-25T07:55:37;23.43;;;5.87;;
5871;SDS011;2962;51.312;7.378;2024-03-25T07:58:03;31.00;;;6.73;;
5871;SDS011;2962;51.312;7.378;2024-03-25T08:00:28;16.90;;;7.13;;
5871;SDS011;2962;51.312;7.378;2024-03-25T08:02:56;31.37;;;5.53;;
5871;SDS011;2962;51.312;7.378;2024-03-25T08:05:22;23.03;;;5.27;;
5871;SDS011;2962;51.312;7.378;2024-03-25T08:07:47;15.70;;;5.00;;
5871;SDS011;2962;51.312;7.378;2024-03-25T08:10:13;13.00;;;4.10;;
5871;SDS011;2962;51.312;7.378;2024-03-25T08:12:38;15.60;;;4.97;;
5871;SDS011;2962;51.312;7.378;2024-03-25T08:15:04;16.90;;;5.20;;
5871;SDS011;2962;51.312;7.378;2024-03-25T08:17:29;16.83;;;4.47;;
5871;SDS011;2962;51.312;7.378;2024-03-25T08:19:54;21.43;;;5.63;;
5871;SDS011;2962;51.312;7.378;2024-03-25T08:22:20;24.40;;;6.00;;
5871;SDS011;2962;51.312;7.378;2024-03-25T08:24:45;22.77;;;6.00;;
5871;SDS011;2962;51.312;7.378;2024-03-25T08:27:10;10.63;;;4.03;;
5871;SDS011;2962;51.312;7.378;2024-03-25T08:29:35;15.60;;;4.70;;
5871;SDS011;2962;51.312;7.378;2024-03-25T08:32:01;12.10;;;4.20;;
5871;SDS011;2962;51.312;7.378;2024-03-25T08:34:26;18.23;;;4.03;;
5871;SDS011;2962;51.312;7.378;2024-03-25T08:36:51;18.13;;;3.73;;
5871;SDS011;2962;51.312;7.378;2024-03-25T08:39:17;17.57;;;3.17;;
5871;SDS011;2962;51.312;7.378;2024-03-25T08:41:42;26.67;;;4.37;;
5871;SDS011;2962;51.312;7.378;2024-03-25T08:44:08;15.70;;;3.63;;
5871;SDS011;2962;51.312;7.378;2024-03-25T08:46:33;8.93;;;3.20;;
5871;SDS011;2962;51.312;7.378;2024-03-25T08:48:58;8.90;;;2.20;;
5871;SDS011;2962;51.312;7.378;2024-03-25T08:51:24;8.53;;;2.57;;
5871;SDS011;2962;51.312;7.378;2024-03-25T08:53:49;6.70;;;1.80;;
5871;SDS011;2962;51.312;7.378;2024-03-25T08:56:15;11.97;;;2.00;;
5871;SDS011;2962;51.312;7.378;2024-03-25T08:58:40;10.90;;;2.10;;
5871;SDS011;2962;51.312;7.378;2024-03-25T09:01:05;6.40;;;2.50;;
5871;SDS011;2962;51.312;7.378;2024-03-25T09:03:31;9.53;;;2.63;;
5871;SDS011;2962;51.312;7.378;2024-03-25T09:05:57;7.67;;;1.53;;
5871;SDS011;2962;51.312;7.378;2024-03-25T09:08:22;8.77;;;2.10;;
5871;SDS011;2962;51.312;7.378;2024-03-25T09:10:47;10.50;;;3.13;;
5871;SDS011;2962;51.312;7.378;2024-03-25T09:13:28;19.00;;;2.07;;
5871;SDS011;2962;51.312;7.378;2024-03-25T09:15:56;4.20;;;2.00;;
5871;SDS011;2962;51.312;7.378;2024-03-25T09:18:21;15.60;;;2.10;;
5871;SDS011;2962;51.312;7.378;2024-03-25T09:20:47;5.70;;;1.13;;
5871;SDS011;2962;51.312;7.378;2024-03-25T09:23:12;3.60;;;1.00;;
5871;SDS011;2962;51.312;7.378;2024-03-25T09:25:38;5.73;;;1.33;;
5871;SDS011;2962;51.312;7.378;2024-03-25T09:28:03;5.77;;;1.33;;
5871;SDS011;2962;51.312;7.378;2024-03-25T09:30:29;5.40;;;1.80;;
5871;SDS011;2962;51.312;7.378;2024-03-25T09:32:54;5.57;;;1.10;;
5871;SDS011;2962;51.312;7.378;2024-03-25T09:35:19;2.73;;;1.83;;
5871;SDS011;2962;51.312;7.378;2024-03-25T09:37:45;7.67;;;1.40;;
5871;SDS011;2962;51.312;7.378;2024-03-25T09:40:10;8.93;;;1.70;;
5871;SDS011;2962;51.312;7.378;2024-03-25T09:45:17;4.13;;;1.43;;
5871;SDS011;2962;51.312;7.378;2024-03-25T09:47:47;4.73;;;2.07;;
5871;SDS011;2962;51.312;7.378;2024-03-25T09:50:13;5.63;;;2.00;;
5871;SDS011;2962;51.312;7.378;2024-03-25T09:52:44;6.87;;;1.73;;
5871;SDS011;2962;51.312;7.378;2024-03-25T09:55:10;1.90;;;1.43;;
5871;SDS011;2962;51.312;7.378;2024-03-25T09:57:35;10.07;;;1.60;;
5871;SDS011;2962;51.312;7.378;2024-03-25T10:00:01;10.63;;;2.53;;
5871;SDS011;2962;51.312;7.378;2024-03-25T10:02:29;5.40;;;1.80;;
5871;SDS011;2962;51.312;7.378;2024-03-25T10:04:55;7.30;;;1.70;;
5871;SDS011;2962;51.312;7.378;2024-03-25T10:07:21;9.00;;;1.90;;
5871;SDS011;2962;51.312;7.378;2024-03-25T10:09:49;5.73;;;2.20;;
5871;SDS011;2962;51.312;7.378;2024-03-25T10:12:15;3.20;;;1.47;;
5871;SDS011;2962;51.312;7.378;2024-03-25T10:14:40;2.83;;;1.10;;
5871;SDS011;2962;51.312;7.378;2024-03-25T10:17:05;2.80;;;1.33;;
5871;SDS011;2962;51.312;7.378;2024-03-25T10:19:32;3.33;;;1.40;;
5871;SDS011;2962;51.312;7.378;2024-03-25T10:22:04;8.80;;;1.70;;
5871;SDS011;2962;51.312;7.378;2024-03-25T10:24:39;5.83;;;1.57;;
5871;SDS011;2962;51.312;7.378;2024-03-25T10:27:17;3.43;;;1.27;;
5871;SDS011;2962;51.312;7.378;2024-03-25T10:29:53;2.20;;;0.90;;
5871;SDS011;2962;51.312;7.378;2024-03-25T10:32:20;5.90;;;1.80;;
5871;SDS011;2962;51.312;7.378;2024-03-25T10:34:45;4.33;;;1.80;;
5871;SDS011;2962;51.312;7.378;2024-03-25T10:37:11;2.67;;;1.50;;
5871;SDS011;2962;51.312;7.378;2024-03-25T10:39:43;3.20;;;1.40;;
5871;SDS011;2962;51.312;7.378;2024-03-25T10:42:13;3.77;;;1.77;;
5871;SDS011;2962;51.312;7.378;2024-03-25T10:44:39;7.67;;;1.40;;
5871;SDS011;2962;51.312;7.378;2024-03-25T10:47:05;3.23;;;1.20;;
5871;SDS011;2962;51.312;7.378;2024-03-25T10:49:33;13.10;;;1.57;;
5871;SDS011;2962;51.312;7.378;2024-03-25T10:52:05;7.20;;;1.60;;
5871;SDS011;2962;51.312;7.378;2024-03-25T10:54:31;7.03;;;1.80;;
5871;SDS011;2962;51.312;7.378;2024-03-25T10:56:57;2.60;;;1.27;;
5871;SDS011;2962;51.312;7.378;2024-03-25T10:59:23;3.67;;;1.20;;
5871;SDS011;2962;51.312;7.378;2024-03-25T11:01:51;4.87;;;2.17;;
5871;SDS011;2962;51.312;7.378;2024-03-25T11:04:16;8.07;;;1.40;;
5871;SDS011;2962;51.312;7.378;2024-03-25T11:06:42;5.13;;;1.30;;
5871;SDS011;2962;51.312;7.378;2024-03-25T11:09:07;2.83;;;1.33;;
5871;SDS011;2962;51.312;7.378;2024-03-25T11:11:33;3.17;;;1.30;;
5871;SDS011;2962;51.312;7.378;2024-03-25T11:13:59;4.20;;;1.80;;
5871;SDS011;2962;51.312;7.378;2024-03-25T11:16:33;1.83;;;1.23;;
5871;SDS011;2962;51.312;7.378;2024-03-25T11:19:04;7.30;;;1.20;;
5871;SDS011;2962;51.312;7.378;2024-03-25T11:21:31;7.83;;;1.63;;
5871;SDS011;2962;51.312;7.378;2024-03-25T11:24:05;6.70;;;1.77;;
5871;SDS011;2962;51.312;7.378;2024-03-25T11:26:31;3.60;;;1.67;;
5871;SDS011;2962;51.312;7.378;2024-03-25T11:29:00;8.30;;;1.50;;
5871;SDS011;2962;51.312;7.378;2024-03-25T11:31:25;7.27;;;1.80;;
5871;SDS011;2962;51.312;7.378;2024-03-25T11:33:51;5.60;;;1.17;;
5871;SDS011;2962;51.312;7.378;2024-03-25T11:36:16;4.93;;;1.37;;
5871;SDS011;2962;51.312;7.378;2024-03-25T11:38:45;5.80;;;1.07;;
5871;SDS011;2962;51.312;7.378;2024-03-25T11:41:11;2.13;;;1.10;;
5871;SDS011;2962;51.312;7.378;2024-03-25T11:43:37;5.67;;;1.30;;
5871;SDS011;2962;51.312;7.378;2024-03-25T11:46:02;3.33;;;1.23;;
5871;SDS011;2962;51.312;7.378;2024-03-25T11:48:28;6.53;;;1.33;;
5871;SDS011;2962;51.312;7.378;2024-03-25T11:50:54;9.00;;;2.00;;
5871;SDS011;2962;51.312;7.378;2024-03-25T11:53:19;2.47;;;1.17;;
5871;SDS011;2962;51.312;7.378;2024-03-25T11:55:48;9.13;;;1.57;;
5871;SDS011;2962;51.312;7.378;2024-03-25T11:58:14;9.47;;;1.70;;
5871;SDS011;2962;51.312;7.378;2024-03-25T12:00:46;4.27;;;1.40;;
5871;SDS011;2962;51.312;7.378;2024-03-25T12:03:15;5.53;;;1.43;;
5871;SDS011;2962;51.312;7.378;2024-03-25T12:05:43;7.03;;;1.50;;
5871;SDS011;2962;51.312;7.378;2024-03-25T12:08:09;3.60;;;1.40;;
5871;SDS011;2962;51.312;7.378;2024-03-25T12:10:37;4.83;;;1.23;;
5871;SDS011;2962;51.312;7.378;2024-03-25T12:13:21;4.10;;;1.40;;
5871;SDS011;2962;51.312;7.378;2024-03-25T12:15:47;5.13;;;1.07;;
5871;SDS011;2962;51.312;7.378;2024-03-25T12:18:13;4.07;;;1.50;;
5871;SDS011;2962;51.312;7.378;2024-03-25T12:20:39;2.63;;;1.17;;
5871;SDS011;2962;51.312;7.378;2024-03-25T12:23:05;7.50;;;1.63;;
5871;SDS011;2962;51.312;7.378;2024-03-25T12:25:30;3.03;;;1.47;;
5871;SDS011;2962;51.312;7.378;2024-03-25T12:27:56;3.07;;;1.27;;
5871;SDS011;2962;51.312;7.378;2024-03-25T12:30:22;4.57;;;1.00;;
5871;SDS011;2962;51.312;7.378;2024-03-25T12:32:48;5.33;;;1.30;;
5871;SDS011;2962;51.312;7.378;2024-03-25T12:35:16;7.00;;;1.40;;
5871;SDS011;2962;51.312;7.378;2024-03-25T12:37:46;1.93;;;1.40;;
5871;SDS011;2962;51.312;7.378;2024-03-25T12:40:13;6.07;;;1.57;;
5871;SDS011;2962;51.312;7.378;2024-03-25T12:42:53;5.67;;;1.70;;
5871;SDS011;2962;51.312;7.378;2024-03-25T12:45:20;5.70;;;1.50;;
5871;SDS011;2962;51.312;7.378;2024-03-25T12:47:45;4.73;;;1.90;;
5871;SDS011;2962;51.312;7.378;2024-03-25T12:50:11;3.10;;;1.23;;
5871;SDS011;2962;51.312;7.378;2024-03-25T12:52:37;4.67;;;1.33;;
5871;SDS011;2962;51.312;7.378;2024-03-25T12:55:02;5.70;;;1.40;;
5871;SDS011;2962;51.312;7.378;2024-03-25T12:57:28;3.67;;;1.60;;
5871;SDS011;2962;51.312;7.378;2024-03-25T12:59:54;1.50;;;1.40;;
5871;SDS011;2962;51.312;7.378;2024-03-25T13:02:19;5.50;;;1.30;;
5871;SDS011;2962;51.312;7.378;2024-03-25T13:04:44;4.63;;;1.13;;
5871;SDS011;2962;51.312;7.378;2024-03-25T13:07:09;3.33;;;1.67;;
5871;SDS011;2962;51.312;7.378;2024-03-25T13:09:35;3.10;;;1.27;;
5871;SDS011;2962;51.312;7.378;2024-03-25T13:12:00;3.60;;;1.60;;
5871;SDS011;2962;51.312;7.378;2024-03-25T13:14:26;4.10;;;1.50;;
5871;SDS011;2962;51.312;7.378;2024-03-25T13:16:52;3.43;;;1.40;;
5871;SDS011;2962;51.312;7.378;2024-03-25T13:19:17;2.80;;;1.23;;
5871;SDS011;2962;51.312;7.378;2024-03-25T13:21:42;3.03;;;1.80;;
5871;SDS011;2962;51.312;7.378;2024-03-25T13:24:08;3.30;;;1.27;;
5871;SDS011;2962;51.312;7.378;2024-03-25T13:26:33;6.23;;;1.70;;
5871;SDS011;2962;51.312;7.378;2024-03-25T13:28:58;5.00;;;1.53;;
5871;SDS011;2962;51.312;7.378;2024-03-25T13:31:24;1.67;;;1.30;;
5871;SDS011;2962;51.312;7.378;2024-03-25T13:33:50;2.50;;;1.37;;
5871;SDS011;2962;51.312;7.378;2024-03-25T13:36:16;2.93;;;1.47;;
5871;SDS011;2962;51.312;7.378;2024-03-25T13:38:42;2.83;;;1.30;;
5871;SDS011;2962;51.312;7.378;2024-03-25T13:41:07;2.10;;;1.30;;
5871;SDS011;2962;51.312;7.378;2024-03-25T13:43:33;2.60;;;1.37;;
5871;SDS011;2962;51.312;7.378;2024-03-25T13:45:58;2.77;;;1.30;;
5871;SDS011;2962;51.312;7.378;2024-03-25T13:48:26;2.73;;;1.40;;
5871;SDS011;2962;51.312;7.378;2024-03-25T13:50:55;1.90;;;1.30;;
5871;SDS011;2962;51.312;7.378;2024-03-25T13:53:20;5.63;;;1.20;;
5871;SDS011;2962;51.312;7.378;2024-03-25T13:55:46;4.80;;;1.30;;
5871;SDS011;2962;51.312;7.378;2024-03-25T13:58:12;2.00;;;1.40;;
5871;SDS011;2962;51.312;7.378;2024-03-25T14:00:38;5.87;;;1.77;;
5871;SDS011;2962;51.312;7.378;2024-03-25T14:03:03;1.60;;;1.50;;
5871;SDS011;2962;51.312;7.378;2024-03-25T14:05:29;1.33;;;1.17;;
5871;SDS011;2962;51.312;7.378;2024-03-25T14:07:54;2.50;;;1.30;;
5871;SDS011;2962;51.312;7.378;2024-03-25T14:10:21;3.80;;;1.60;;
5871;SDS011;2962;51.312;7.378;2024-03-25T14:12:47;1.50;;;1.40;;
5871;SDS011;2962;51.312;7.378;2024-03-25T14:15:12;4.30;;;1.80;;
5871;SDS011;2962;51.312;7.378;2024-03-25T14:17:37;2.50;;;1.70;;
5871;SDS011;2962;51.312;7.378;2024-03-25T14:20:03;5.07;;;1.80;;
5871;SDS011;2962;51.312;7.378;2024-03-25T14:22:32;7.40;;;2.10;;
5871;SDS011;2962;51.312;7.378;2024-03-25T14:24:58;3.27;;;1.77;;
5871;SDS011;2962;51.312;7.378;2024-03-25T14:27:24;2.60;;;1.40;;
5871;SDS011;2962;51.312;7.378;2024-03-25T14:29:50;2.87;;;1.50;;
5871;SDS011;2962;51.312;7.378;2024-03-25T14:32:16;4.57;;;1.70;;
5871;SDS011;2962;51.312;7.378;2024-03-25T14:34:44;2.63;;;2.03;;
5871;SDS011;2962;51.312;7.378;2024-03-25T14:37:10;2.10;;;1.40;;
5871;SDS011;2962;51.312;7.378;2024-03-25T14:39:36;2.87;;;1.57;;
5871;SDS011;2962;51.312;7.378;2024-03-25T14:42:01;2.13;;;1.83;;
5871;SDS011;2962;51.312;7.378;2024-03-25T14:44:28;4.03;;;1.50;;
5871;SDS011;2962;51.312;7.378;2024-03-25T14:46:54;3.70;;;1.73;;
5871;SDS011;2962;51.312;7.378;2024-03-25T14:49:20;2.97;;;2.10;;
5871;SDS011;2962;51.312;7.378;2024-03-25T14:51:47;2.10;;;1.67;;
5871;SDS011;2962;51.312;7.378;2024-03-25T14:54:12;2.70;;;2.00;;
5871;SDS011;2962;51.312;7.378;2024-03-25T14:56:38;1.90;;;1.50;;
5871;SDS011;2962;51.312;7.378;2024-03-25T14:59:03;3.30;;;1.73;;
5871;SDS011;2962;51.312;7.378;2024-03-25T15:01:29;1.60;;;1.50;;